sensor_id;sensor_type;location;lat;lon;timestamp;P1;durP1;ratioP1;P2;durP2;ratioP2
44137;SDS011;29800;55.942;37.314;2023-02-28T00:00:34;10.82;;;4.47;;
44137;SDS011;29800;55.942;37.314;2023-02-28T00:03:01;6.53;;;3.75;;
44137;SDS011;29800;55.942;37.314;2023-02-28T00:05:28;8.00;;;3.78;;
44137;SDS011;29800;55.942;37.314;2023-02-28T00:07:54;6.95;;;3.80;;
44137;SDS011;29800;55.942;37.314;2023-02-28T00:10:25;7.43;;;3.88;;
44137;SDS011;29800;55.942;37.314;2023-02-28T00:12:53;7.35;;;3.78;;
44137;SDS011;29800;55.942;37.314;2023-02-28T00:15:22;4.80;;;3.22;;
44137;SDS011;29800;55.942;37.314;2023-02-28T00:17:49;6.25;;;3.55;;
44137;SDS011;29800;55.942;37.314;2023-02-28T00:20:15;5.68;;;3.08;;
44137;SDS011;29800;55.942;37.314;2023-02-28T00:22:44;7.90;;;3.60;;
44137;SDS011;29800;55.942;37.314;2023-02-28T00:25:12;6.57;;;3.60;;
44137;SDS011;29800;55.942;37.314;2023-02-28T00:27:40;7.85;;;3.80;;
44137;SDS011;29800;55.942;37.314;2023-02-28T00:30:07;8.80;;;3.67;;
44137;SDS011;29800;55.942;37.314;2023-02-28T00:32:37;6.32;;;3.42;;
44137;SDS011;29800;55.942;37.314;2023-02-28T00:35:04;7.15;;;3.67;;
44137;SDS011;29800;55.942;37.314;2023-02-28T00:37:30;6.43;;;3.72;;
44137;SDS011;29800;55.942;37.314;2023-02-28T00:39:56;8.68;;;3.60;;
44137;SDS011;29800;55.942;37.314;2023-02-28T00:42:23;6.68;;;3.50;;
44137;SDS011;29800;55.942;37.314;2023-02-28T00:44:50;5.75;;;3.08;;
44137;SDS011;29800;55.942;37.314;2023-02-28T00:47:16;6.40;;;3.20;;
44137;SDS011;29800;55.942;37.314;2023-02-28T00:49:42;7.82;;;3.92;;
44137;SDS011;29800;55.942;37.314;2023-02-28T00:52:08;5.22;;;3.20;;
44137;SDS011;29800;55.942;37.314;2023-02-28T00:54:35;5.85;;;3.13;;
44137;SDS011;29800;55.942;37.314;2023-02-28T00:57:01;9.75;;;3.65;;
44137;SDS011;29800;55.942;37.314;2023-02-28T00:59:27;5.65;;;3.20;;
44137;SDS011;29800;55.942;37.314;2023-02-28T01:01:53;7.60;;;3.65;;
44137;SDS011;29800;55.942;37.314;2023-02-28T01:04:21;10.63;;;4.00;;
44137;SDS011;29800;55.942;37.314;2023-02-28T01:06:47;6.07;;;3.40;;
44137;SDS011;29800;55.942;37.314;2023-02-28T01:09:13;5.93;;;3.42;;
44137;SDS011;29800;55.942;37.314;2023-02-28T01:11:41;7.57;;;3.50;;
44137;SDS011;29800;55.942;37.314;2023-02-28T01:14:13;6.18;;;3.22;;
44137;SDS011;29800;55.942;37.314;2023-02-28T01:16:41;6.03;;;3.35;;
44137;SDS011;29800;55.942;37.314;2023-02-28T01:19:08;8.75;;;3.90;;
44137;SDS011;29800;55.942;37.314;2023-02-28T01:21:34;6.15;;;3.40;;
44137;SDS011;29800;55.942;37.314;2023-02-28T01:24:01;5.65;;;3.55;;
44137;SDS011;29800;55.942;37.314;2023-02-28T01:26:28;6.35;;;3.40;;
44137;SDS011;29800;55.942;37.314;2023-02-28T01:28:54;6.43;;;3.42;;
44137;SDS011;29800;55.942;37.314;2023-02-28T01:31:21;6.65;;;3.42;;
44137;SDS011;29800;55.942;37.314;2023-02-28T01:33:48;5.35;;;3.05;;
44137;SDS011;29800;55.942;37.314;2023-02-28T01:36:16;5.75;;;2.92;;
44137;SDS011;29800;55.942;37.314;2023-02-28T01:38:43;6.03;;;2.95;;
44137;SDS011;29800;55.942;37.314;2023-02-28T01:41:14;6.25;;;3.33;;
44137;SDS011;29800;55.942;37.314;2023-02-28T01:46:11;5.30;;;3.00;;
44137;SDS011;29800;55.942;37.314;2023-02-28T01:48:40;5.95;;;2.90;;
44137;SDS011;29800;55.942;37.314;2023-02-28T01:51:13;5.93;;;3.30;;
44137;SDS011;29800;55.942;37.314;2023-02-28T01:53:47;4.55;;;2.60;;
44137;SDS011;29800;55.942;37.314;2023-02-28T01:56:20;7.75;;;3.40;;
44137;SDS011;29800;55.942;37.314;2023-02-28T01:58:53;6.23;;;3.63;;
44137;SDS011;29800;55.942;37.314;2023-02-28T02:01:22;4.72;;;2.67;;
44137;SDS011;29800;55.942;37.314;2023-02-28T02:03:59;5.50;;;3.20;;
44137;SDS011;29800;55.942;37.314;2023-02-28T02:06:29;5.35;;;3.05;;
44137;SDS011;29800;55.942;37.314;2023-02-28T02:09:01;4.53;;;2.92;;
44137;SDS011;29800;55.942;37.314;2023-02-28T02:11:28;5.88;;;2.63;;
44137;SDS011;29800;55.942;37.314;2023-02-28T02:17:00;5.28;;;2.90;;
44137;SDS011;29800;55.942;37.314;2023-02-28T02:27:59;5.53;;;3.08;;
44137;SDS011;29800;55.942;37.314;2023-02-28T02:36:23;6.22;;;3.42;;
44137;SDS011;29800;55.942;37.314;2023-02-28T02:38:59;5.53;;;2.97;;
44137;SDS011;29800;55.942;37.314;2023-02-28T02:41:36;6.78;;;3.42;;
44137;SDS011;29800;55.942;37.314;2023-02-28T02:46:44;5.68;;;2.53;;
44137;SDS011;29800;55.942;37.314;2023-02-28T02:49:32;6.13;;;3.28;;
44137;SDS011;29800;55.942;37.314;2023-02-28T02:52:04;5.80;;;3.00;;
44137;SDS011;29800;55.942;37.314;2023-02-28T02:54:36;5.05;;;2.80;;
44137;SDS011;29800;55.942;37.314;2023-02-28T02:57:14;4.40;;;2.45;;
44137;SDS011;29800;55.942;37.314;2023-02-28T02:59:46;5.97;;;2.88;;
44137;SDS011;29800;55.942;37.314;2023-02-28T03:02:15;3.50;;;2.13;;
44137;SDS011;29800;55.942;37.314;2023-02-28T03:04:50;6.63;;;3.22;;
44137;SDS011;29800;55.942;37.314;2023-02-28T03:07:20;6.47;;;3.50;;
44137;SDS011;29800;55.942;37.314;2023-02-28T03:09:51;7.88;;;3.17;;
44137;SDS011;29800;55.942;37.314;2023-02-28T03:12:18;8.77;;;4.07;;
44137;SDS011;29800;55.942;37.314;2023-02-28T03:14:55;9.25;;;4.68;;
44137;SDS011;29800;55.942;37.314;2023-02-28T03:25:59;6.15;;;2.88;;
44137;SDS011;29800;55.942;37.314;2023-02-28T03:28:31;7.90;;;3.33;;
44137;SDS011;29800;55.942;37.314;2023-02-28T03:31:21;7.00;;;3.20;;
44137;SDS011;29800;55.942;37.314;2023-02-28T03:34:09;8.30;;;4.18;;
44137;SDS011;29800;55.942;37.314;2023-02-28T03:36:37;22.45;;;7.93;;
44137;SDS011;29800;55.942;37.314;2023-02-28T03:39:12;14.27;;;6.85;;
44137;SDS011;29800;55.942;37.314;2023-02-28T03:41:47;9.50;;;4.10;;
44137;SDS011;29800;55.942;37.314;2023-02-28T03:44:29;4.93;;;2.25;;
44137;SDS011;29800;55.942;37.314;2023-02-28T03:49:40;3.05;;;1.65;;
44137;SDS011;29800;55.942;37.314;2023-02-28T03:52:31;7.25;;;3.53;;
44137;SDS011;29800;55.942;37.314;2023-02-28T03:55:02;8.00;;;3.40;;
44137;SDS011;29800;55.942;37.314;2023-02-28T03:57:37;25.45;;;9.15;;
44137;SDS011;29800;55.942;37.314;2023-02-28T04:00:30;13.05;;;4.95;;
44137;SDS011;29800;55.942;37.314;2023-02-28T04:03:00;6.47;;;3.80;;
44137;SDS011;29800;55.942;37.314;2023-02-28T04:05:27;4.82;;;2.38;;
44137;SDS011;29800;55.942;37.314;2023-02-28T04:07:53;6.75;;;3.53;;
44137;SDS011;29800;55.942;37.314;2023-02-28T04:10:19;4.10;;;2.40;;
44137;SDS011;29800;55.942;37.314;2023-02-28T04:12:45;5.03;;;2.42;;
44137;SDS011;29800;55.942;37.314;2023-02-28T04:15:11;4.88;;;2.35;;
44137;SDS011;29800;55.942;37.314;2023-02-28T04:17:37;4.95;;;2.90;;
44137;SDS011;29800;55.942;37.314;2023-02-28T04:20:04;6.55;;;2.97;;
44137;SDS011;29800;55.942;37.314;2023-02-28T04:22:35;6.10;;;3.00;;
44137;SDS011;29800;55.942;37.314;2023-02-28T04:25:02;4.45;;;2.40;;
44137;SDS011;29800;55.942;37.314;2023-02-28T04:27:29;6.28;;;3.53;;
44137;SDS011;29800;55.942;37.314;2023-02-28T04:29:55;6.03;;;3.30;;
44137;SDS011;29800;55.942;37.314;2023-02-28T04:32:21;6.70;;;3.17;;
44137;SDS011;29800;55.942;37.314;2023-02-28T04:34:47;5.10;;;3.03;;
44137;SDS011;29800;55.942;37.314;2023-02-28T04:37:13;6.30;;;3.08;;
44137;SDS011;29800;55.942;37.314;2023-02-28T04:39:39;6.43;;;3.20;;
44137;SDS011;29800;55.942;37.314;2023-02-28T04:42:06;6.07;;;3.15;;
44137;SDS011;29800;55.942;37.314;2023-02-28T04:44:32;4.57;;;2.60;;
44137;SDS011;29800;55.942;37.314;2023-02-28T04:46:58;4.65;;;2.67;;
44137;SDS011;29800;55.942;37.314;2023-02-28T04:49:24;6.00;;;3.50;;
44137;SDS011;29800;55.942;37.314;2023-02-28T04:51:51;6.85;;;3.28;;
44137;SDS011;29800;55.942;37.314;2023-02-28T04:54:18;5.70;;;2.90;;
44137;SDS011;29800;55.942;37.314;2023-02-28T04:56:44;4.57;;;2.60;;
44137;SDS011;29800;55.942;37.314;2023-02-28T04:59:10;5.65;;;2.53;;
44137;SDS011;29800;55.942;37.314;2023-02-28T05:01:36;4.95;;;2.88;;
44137;SDS011;29800;55.942;37.314;2023-02-28T05:04:03;5.20;;;3.28;;
44137;SDS011;29800;55.942;37.314;2023-02-28T05:06:30;5.53;;;3.17;;
44137;SDS011;29800;55.942;37.314;2023-02-28T05:08:58;5.32;;;2.70;;
44137;SDS011;29800;55.942;37.314;2023-02-28T05:13:59;4.40;;;2.30;;
44137;SDS011;29800;55.942;37.314;2023-02-28T05:16:25;18.77;;;5.68;;
44137;SDS011;29800;55.942;37.314;2023-02-28T05:18:51;24.60;;;6.75;;
44137;SDS011;29800;55.942;37.314;2023-02-28T05:24:06;5.05;;;2.78;;
44137;SDS011;29800;55.942;37.314;2023-02-28T05:26:36;4.82;;;2.80;;
44137;SDS011;29800;55.942;37.314;2023-02-28T05:29:03;4.45;;;2.60;;
44137;SDS011;29800;55.942;37.314;2023-02-28T05:31:30;4.13;;;2.50;;
44137;SDS011;29800;55.942;37.314;2023-02-28T05:33:56;5.07;;;2.50;;
44137;SDS011;29800;55.942;37.314;2023-02-28T05:36:23;5.28;;;2.53;;
44137;SDS011;29800;55.942;37.314;2023-02-28T05:38:49;4.80;;;2.47;;
44137;SDS011;29800;55.942;37.314;2023-02-28T05:41:17;3.80;;;2.42;;
44137;SDS011;29800;55.942;37.314;2023-02-28T05:43:45;4.97;;;2.63;;
44137;SDS011;29800;55.942;37.314;2023-02-28T05:46:12;4.65;;;2.65;;
44137;SDS011;29800;55.942;37.314;2023-02-28T05:48:39;4.50;;;2.55;;
44137;SDS011;29800;55.942;37.314;2023-02-28T05:51:06;5.82;;;2.85;;
44137;SDS011;29800;55.942;37.314;2023-02-28T05:53:33;4.68;;;2.75;;
44137;SDS011;29800;55.942;37.314;2023-02-28T05:56:00;4.43;;;2.20;;
44137;SDS011;29800;55.942;37.314;2023-02-28T05:58:26;6.03;;;2.65;;
44137;SDS011;29800;55.942;37.314;2023-02-28T06:00:56;4.18;;;2.60;;
44137;SDS011;29800;55.942;37.314;2023-02-28T06:03:26;4.63;;;2.33;;
44137;SDS011;29800;55.942;37.314;2023-02-28T06:05:53;5.40;;;2.60;;
44137;SDS011;29800;55.942;37.314;2023-02-28T06:08:19;9.50;;;4.07;;
44137;SDS011;29800;55.942;37.314;2023-02-28T06:10:46;5.65;;;2.47;;
44137;SDS011;29800;55.942;37.314;2023-02-28T06:13:12;4.32;;;2.30;;
44137;SDS011;29800;55.942;37.314;2023-02-28T06:15:38;5.60;;;2.50;;
44137;SDS011;29800;55.942;37.314;2023-02-28T06:18:04;5.32;;;2.88;;
44137;SDS011;29800;55.942;37.314;2023-02-28T06:20:30;6.45;;;2.40;;
44137;SDS011;29800;55.942;37.314;2023-02-28T06:22:57;4.80;;;2.60;;
44137;SDS011;29800;55.942;37.314;2023-02-28T06:25:27;4.05;;;2.08;;
44137;SDS011;29800;55.942;37.314;2023-02-28T06:27:53;5.07;;;2.55;;
44137;SDS011;29800;55.942;37.314;2023-02-28T06:30:20;5.45;;;2.45;;
44137;SDS011;29800;55.942;37.314;2023-02-28T06:32:52;4.15;;;2.25;;
44137;SDS011;29800;55.942;37.314;2023-02-28T06:35:18;6.25;;;2.45;;
44137;SDS011;29800;55.942;37.314;2023-02-28T06:37:45;3.42;;;1.92;;
44137;SDS011;29800;55.942;37.314;2023-02-28T06:40:12;4.88;;;2.78;;
44137;SDS011;29800;55.942;37.314;2023-02-28T06:42:38;6.03;;;2.72;;
44137;SDS011;29800;55.942;37.314;2023-02-28T06:45:04;5.68;;;2.65;;
44137;SDS011;29800;55.942;37.314;2023-02-28T06:47:35;4.75;;;2.45;;
44137;SDS011;29800;55.942;37.314;2023-02-28T06:50:02;4.13;;;2.13;;
44137;SDS011;29800;55.942;37.314;2023-02-28T06:52:29;4.65;;;2.25;;
44137;SDS011;29800;55.942;37.314;2023-02-28T06:54:55;4.75;;;2.33;;
44137;SDS011;29800;55.942;37.314;2023-02-28T06:57:27;4.28;;;2.30;;
44137;SDS011;29800;55.942;37.314;2023-02-28T07:00:00;3.38;;;2.15;;
44137;SDS011;29800;55.942;37.314;2023-02-28T07:02:33;4.20;;;2.40;;
44137;SDS011;29800;55.942;37.314;2023-02-28T07:05:03;4.25;;;2.20;;
44137;SDS011;29800;55.942;37.314;2023-02-28T07:07:31;3.85;;;2.22;;
44137;SDS011;29800;55.942;37.314;2023-02-28T07:09:57;3.83;;;2.30;;
44137;SDS011;29800;55.942;37.314;2023-02-28T07:12:23;4.45;;;2.47;;
44137;SDS011;29800;55.942;37.314;2023-02-28T07:14:49;4.57;;;2.33;;
44137;SDS011;29800;55.942;37.314;2023-02-28T07:17:16;3.55;;;2.03;;
44137;SDS011;29800;55.942;37.314;2023-02-28T07:19:42;5.28;;;2.80;;
44137;SDS011;29800;55.942;37.314;2023-02-28T07:22:08;5.43;;;2.85;;
44137;SDS011;29800;55.942;37.314;2023-02-28T07:24:34;5.00;;;2.60;;
44137;SDS011;29800;55.942;37.314;2023-02-28T07:27:00;3.63;;;2.00;;
44137;SDS011;29800;55.942;37.314;2023-02-28T07:29:27;3.97;;;2.08;;
44137;SDS011;29800;55.942;37.314;2023-02-28T07:31:53;4.95;;;2.45;;
44137;SDS011;29800;55.942;37.314;2023-02-28T07:34:19;4.80;;;2.42;;
44137;SDS011;29800;55.942;37.314;2023-02-28T07:36:46;4.65;;;2.28;;
44137;SDS011;29800;55.942;37.314;2023-02-28T07:39:12;3.83;;;2.15;;
44137;SDS011;29800;55.942;37.314;2023-02-28T07:41:38;3.58;;;2.10;;
44137;SDS011;29800;55.942;37.314;2023-02-28T07:44:09;3.30;;;2.00;;
44137;SDS011;29800;55.942;37.314;2023-02-28T07:46:36;3.60;;;2.10;;
44137;SDS011;29800;55.942;37.314;2023-02-28T07:49:03;6.40;;;3.60;;
44137;SDS011;29800;55.942;37.314;2023-02-28T07:51:29;4.20;;;2.30;;
44137;SDS011;29800;55.942;37.314;2023-02-28T07:53:56;3.67;;;2.00;;
44137;SDS011;29800;55.942;37.314;2023-02-28T07:56:22;5.05;;;2.30;;
44137;SDS011;29800;55.942;37.314;2023-02-28T07:58:49;5.70;;;2.35;;
44137;SDS011;29800;55.942;37.314;2023-02-28T08:01:16;3.72;;;2.10;;
44137;SDS011;29800;55.942;37.314;2023-02-28T08:03:42;4.75;;;2.20;;
44137;SDS011;29800;55.942;37.314;2023-02-28T08:06:15;4.03;;;2.33;;
44137;SDS011;29800;55.942;37.314;2023-02-28T08:08:45;3.88;;;2.58;;
44137;SDS011;29800;55.942;37.314;2023-02-28T08:11:12;5.07;;;1.92;;
44137;SDS011;29800;55.942;37.314;2023-02-28T08:13:38;5.10;;;2.28;;
44137;SDS011;29800;55.942;37.314;2023-02-28T08:16:04;5.10;;;2.30;;
44137;SDS011;29800;55.942;37.314;2023-02-28T08:18:31;4.70;;;2.03;;
44137;SDS011;29800;55.942;37.314;2023-02-28T08:20:58;3.33;;;1.90;;
44137;SDS011;29800;55.942;37.314;2023-02-28T08:23:24;4.53;;;2.50;;
44137;SDS011;29800;55.942;37.314;2023-02-28T08:25:53;5.50;;;2.42;;
44137;SDS011;29800;55.942;37.314;2023-02-28T08:28:20;6.70;;;3.03;;
44137;SDS011;29800;55.942;37.314;2023-02-28T08:30:47;4.72;;;2.55;;
44137;SDS011;29800;55.942;37.314;2023-02-28T08:33:13;6.30;;;3.08;;
44137;SDS011;29800;55.942;37.314;2023-02-28T08:35:39;6.18;;;2.85;;
44137;SDS011;29800;55.942;37.314;2023-02-28T08:38:05;5.00;;;2.25;;
44137;SDS011;29800;55.942;37.314;2023-02-28T08:40:31;5.72;;;2.80;;
44137;SDS011;29800;55.942;37.314;2023-02-28T08:42:57;3.95;;;2.38;;
44137;SDS011;29800;55.942;37.314;2023-02-28T08:45:25;4.47;;;2.55;;
44137;SDS011;29800;55.942;37.314;2023-02-28T08:47:51;6.72;;;2.60;;
44137;SDS011;29800;55.942;37.314;2023-02-28T08:50:21;3.30;;;1.90;;
44137;SDS011;29800;55.942;37.314;2023-02-28T08:52:47;7.82;;;2.50;;
44137;SDS011;29800;55.942;37.314;2023-02-28T08:55:13;4.72;;;2.53;;
44137;SDS011;29800;55.942;37.314;2023-02-28T08:57:39;4.90;;;2.65;;
44137;SDS011;29800;55.942;37.314;2023-02-28T09:00:06;4.18;;;2.40;;
44137;SDS011;29800;55.942;37.314;2023-02-28T09:02:33;4.93;;;3.30;;
44137;SDS011;29800;55.942;37.314;2023-02-28T09:04:59;4.90;;;2.78;;
44137;SDS011;29800;55.942;37.314;2023-02-28T09:07:25;5.25;;;2.58;;
44137;SDS011;29800;55.942;37.314;2023-02-28T09:09:51;4.50;;;2.58;;
44137;SDS011;29800;55.942;37.314;2023-02-28T09:12:24;4.32;;;2.60;;
44137;SDS011;29800;55.942;37.314;2023-02-28T09:14:51;5.20;;;2.75;;
44137;SDS011;29800;55.942;37.314;2023-02-28T09:17:18;6.40;;;2.78;;
44137;SDS011;29800;55.942;37.314;2023-02-28T09:19:44;4.15;;;2.10;;
44137;SDS011;29800;55.942;37.314;2023-02-28T09:22:10;4.60;;;2.25;;
44137;SDS011;29800;55.942;37.314;2023-02-28T09:24:37;4.88;;;2.55;;
44137;SDS011;29800;55.942;37.314;2023-02-28T09:27:03;5.43;;;2.45;;
44137;SDS011;29800;55.942;37.314;2023-02-28T09:29:30;4.40;;;2.45;;
44137;SDS011;29800;55.942;37.314;2023-02-28T09:31:58;3.85;;;2.35;;
44137;SDS011;29800;55.942;37.314;2023-02-28T09:34:24;3.40;;;1.92;;
44137;SDS011;29800;55.942;37.314;2023-02-28T09:36:51;3.88;;;2.25;;
44137;SDS011;29800;55.942;37.314;2023-02-28T09:39:20;4.95;;;2.42;;
44137;SDS011;29800;55.942;37.314;2023-02-28T09:41:48;4.80;;;2.50;;
44137;SDS011;29800;55.942;37.314;2023-02-28T09:47:05;4.43;;;2.13;;
44137;SDS011;29800;55.942;37.314;2023-02-28T09:49:41;5.28;;;2.20;;
44137;SDS011;29800;55.942;37.314;2023-02-28T09:52:13;3.58;;;2.30;;
44137;SDS011;29800;55.942;37.314;2023-02-28T09:54:44;5.38;;;2.70;;
44137;SDS011;29800;55.942;37.314;2023-02-28T09:57:16;4.95;;;2.80;;
44137;SDS011;29800;55.942;37.314;2023-02-28T10:11:29;3.70;;;2.22;;
44137;SDS011;29800;55.942;37.314;2023-02-28T10:14:00;5.25;;;2.03;;
44137;SDS011;29800;55.942;37.314;2023-02-28T10:16:34;4.30;;;2.35;;
44137;SDS011;29800;55.942;37.314;2023-02-28T10:24:30;4.25;;;2.40;;
44137;SDS011;29800;55.942;37.314;2023-02-28T10:27:22;4.97;;;2.38;;
44137;SDS011;29800;55.942;37.314;2023-02-28T10:29:50;8.93;;;3.83;;
44137;SDS011;29800;55.942;37.314;2023-02-28T10:32:28;5.43;;;2.95;;
44137;SDS011;29800;55.942;37.314;2023-02-28T10:35:10;5.32;;;3.45;;
44137;SDS011;29800;55.942;37.314;2023-02-28T10:37:42;6.25;;;2.30;;
44137;SDS011;29800;55.942;37.314;2023-02-28T10:42:42;5.50;;;2.53;;
44137;SDS011;29800;55.942;37.314;2023-02-28T10:45:26;5.13;;;2.45;;
44137;SDS011;29800;55.942;37.314;2023-02-28T10:47:56;4.10;;;2.28;;
44137;SDS011;29800;55.942;37.314;2023-02-28T10:50:50;5.18;;;3.00;;
44137;SDS011;29800;55.942;37.314;2023-02-28T10:53:39;4.82;;;2.38;;
44137;SDS011;29800;55.942;37.314;2023-02-28T10:59:22;5.85;;;2.47;;
44137;SDS011;29800;55.942;37.314;2023-02-28T11:01:54;3.90;;;2.47;;
44137;SDS011;29800;55.942;37.314;2023-02-28T11:06:58;5.43;;;2.70;;
44137;SDS011;29800;55.942;37.314;2023-02-28T11:11:59;4.80;;;2.63;;
44137;SDS011;29800;55.942;37.314;2023-02-28T11:14:30;4.68;;;2.53;;
44137;SDS011;29800;55.942;37.314;2023-02-28T11:17:11;6.07;;;2.80;;
44137;SDS011;29800;55.942;37.314;2023-02-28T11:19:45;3.97;;;2.33;;
44137;SDS011;29800;55.942;37.314;2023-02-28T11:22:17;4.00;;;2.63;;
44137;SDS011;29800;55.942;37.314;2023-02-28T11:24:47;5.32;;;2.45;;
44137;SDS011;29800;55.942;37.314;2023-02-28T11:29:55;3.78;;;2.50;;
44137;SDS011;29800;55.942;37.314;2023-02-28T11:32:26;4.43;;;2.67;;
44137;SDS011;29800;55.942;37.314;2023-02-28T11:37:37;6.03;;;3.20;;
44137;SDS011;29800;55.942;37.314;2023-02-28T11:40:17;4.90;;;3.00;;
44137;SDS011;29800;55.942;37.314;2023-02-28T11:57:00;13.15;;;6.75;;
44137;SDS011;29800;55.942;37.314;2023-02-28T11:59:38;9.00;;;3.60;;
44137;SDS011;29800;55.942;37.314;2023-02-28T12:10:44;4.78;;;2.40;;
44137;SDS011;29800;55.942;37.314;2023-02-28T12:18:42;5.10;;;2.90;;
44137;SDS011;29800;55.942;37.314;2023-02-28T12:21:23;3.63;;;2.60;;
44137;SDS011;29800;55.942;37.314;2023-02-28T12:24:15;5.25;;;2.40;;
44137;SDS011;29800;55.942;37.314;2023-02-28T12:26:44;11.40;;;4.97;;
44137;SDS011;29800;55.942;37.314;2023-02-28T12:32:40;8.45;;;4.00;;
44137;SDS011;29800;55.942;37.314;2023-02-28T12:37:49;8.57;;;3.83;;
44137;SDS011;29800;55.942;37.314;2023-02-28T12:40:21;7.25;;;3.20;;
44137;SDS011;29800;55.942;37.314;2023-02-28T12:42:58;4.50;;;2.75;;
44137;SDS011;29800;55.942;37.314;2023-02-28T12:45:50;4.72;;;2.78;;
44137;SDS011;29800;55.942;37.314;2023-02-28T12:48:53;5.10;;;2.90;;
44137;SDS011;29800;55.942;37.314;2023-02-28T12:51:24;4.28;;;2.30;;
44137;SDS011;29800;55.942;37.314;2023-02-28T12:56:47;4.78;;;2.75;;
44137;SDS011;29800;55.942;37.314;2023-02-28T13:10:15;4.10;;;2.05;;
44137;SDS011;29800;55.942;37.314;2023-02-28T13:12:47;3.45;;;2.05;;
44137;SDS011;29800;55.942;37.314;2023-02-28T13:15:19;4.43;;;2.25;;
44137;SDS011;29800;55.942;37.314;2023-02-28T13:17:53;4.38;;;2.13;;
44137;SDS011;29800;55.942;37.314;2023-02-28T13:20:33;5.18;;;2.30;;
44137;SDS011;29800;55.942;37.314;2023-02-28T13:23:01;3.85;;;2.45;;
44137;SDS011;29800;55.942;37.314;2023-02-28T13:27:59;4.43;;;2.75;;
44137;SDS011;29800;55.942;37.314;2023-02-28T14:00:01;4.70;;;2.70;;
44137;SDS011;29800;55.942;37.314;2023-02-28T14:02:47;4.22;;;2.50;;
44137;SDS011;29800;55.942;37.314;2023-02-28T14:05:19;4.03;;;2.30;;
44137;SDS011;29800;55.942;37.314;2023-02-28T14:07:56;3.72;;;2.22;;
44137;SDS011;29800;55.942;37.314;2023-02-28T14:10:32;4.82;;;2.65;;
44137;SDS011;29800;55.942;37.314;2023-02-28T14:16:10;4.75;;;2.50;;
44137;SDS011;29800;55.942;37.314;2023-02-28T14:18:55;4.32;;;2.63;;
44137;SDS011;29800;55.942;37.314;2023-02-28T14:21:28;3.83;;;2.35;;
44137;SDS011;29800;55.942;37.314;2023-02-28T14:32:33;5.55;;;3.15;;
44137;SDS011;29800;55.942;37.314;2023-02-28T14:37:44;4.47;;;2.50;;
44137;SDS011;29800;55.942;37.314;2023-02-28T14:42:54;4.13;;;2.38;;
44137;SDS011;29800;55.942;37.314;2023-02-28T14:45:23;6.40;;;3.33;;
44137;SDS011;29800;55.942;37.314;2023-02-28T14:47:50;5.65;;;2.60;;
44137;SDS011;29800;55.942;37.314;2023-02-28T14:50:22;5.97;;;2.70;;
44137;SDS011;29800;55.942;37.314;2023-02-28T14:52:53;5.93;;;2.60;;
44137;SDS011;29800;55.942;37.314;2023-02-28T14:55:24;4.07;;;2.70;;
44137;SDS011;29800;55.942;37.314;2023-02-28T14:57:54;5.10;;;3.17;;
44137;SDS011;29800;55.942;37.314;2023-02-28T15:00:26;5.13;;;2.88;;
44137;SDS011;29800;55.942;37.314;2023-02-28T15:02:55;4.50;;;2.75;;
44137;SDS011;29800;55.942;37.314;2023-02-28T15:05:32;3.78;;;2.50;;
44137;SDS011;29800;55.942;37.314;2023-02-28T15:08:13;3.55;;;2.30;;
44137;SDS011;29800;55.942;37.314;2023-02-28T15:10:44;3.90;;;2.30;;
44137;SDS011;29800;55.942;37.314;2023-02-28T15:13:23;4.63;;;2.72;;
44137;SDS011;29800;55.942;37.314;2023-02-28T15:16:01;5.78;;;2.60;;
44137;SDS011;29800;55.942;37.314;2023-02-28T15:21:00;3.97;;;2.28;;
44137;SDS011;29800;55.942;37.314;2023-02-28T15:23:30;5.72;;;2.40;;
44137;SDS011;29800;55.942;37.314;2023-02-28T15:25:58;3.72;;;2.25;;
44137;SDS011;29800;55.942;37.314;2023-02-28T15:28:24;5.13;;;3.00;;
44137;SDS011;29800;55.942;37.314;2023-02-28T15:30:59;3.80;;;2.33;;
44137;SDS011;29800;55.942;37.314;2023-02-28T15:33:27;4.78;;;2.63;;
44137;SDS011;29800;55.942;37.314;2023-02-28T15:36:10;6.03;;;2.60;;
44137;SDS011;29800;55.942;37.314;2023-02-28T15:38:40;3.92;;;2.20;;
44137;SDS011;29800;55.942;37.314;2023-02-28T15:41:20;4.03;;;2.33;;
44137;SDS011;29800;55.942;37.314;2023-02-28T15:43:49;4.13;;;2.42;;
44137;SDS011;29800;55.942;37.314;2023-02-28T15:47:05;4.40;;;2.40;;
44137;SDS011;29800;55.942;37.314;2023-02-28T15:49:44;4.15;;;2.60;;
44137;SDS011;29800;55.942;37.314;2023-02-28T15:52:17;3.42;;;2.25;;
44137;SDS011;29800;55.942;37.314;2023-02-28T15:54:52;4.78;;;2.28;;
44137;SDS011;29800;55.942;37.314;2023-02-28T15:57:22;3.58;;;2.13;;
44137;SDS011;29800;55.942;37.314;2023-02-28T15:59:59;3.50;;;2.20;;
44137;SDS011;29800;55.942;37.314;2023-02-28T16:02:37;3.28;;;2.28;;
44137;SDS011;29800;55.942;37.314;2023-02-28T16:07:40;3.40;;;2.03;;
44137;SDS011;29800;55.942;37.314;2023-02-28T16:10:09;5.25;;;2.40;;
44137;SDS011;29800;55.942;37.314;2023-02-28T16:12:39;3.20;;;1.92;;
44137;SDS011;29800;55.942;37.314;2023-02-28T16:17:44;4.13;;;2.22;;
44137;SDS011;29800;55.942;37.314;2023-02-28T16:20:13;3.25;;;2.30;;
44137;SDS011;29800;55.942;37.314;2023-02-28T16:22:40;4.43;;;2.33;;
44137;SDS011;29800;55.942;37.314;2023-02-28T16:25:10;4.70;;;2.58;;
44137;SDS011;29800;55.942;37.314;2023-02-28T16:27:42;5.35;;;2.55;;
44137;SDS011;29800;55.942;37.314;2023-02-28T16:30:15;3.90;;;2.05;;
44137;SDS011;29800;55.942;37.314;2023-02-28T16:32:45;4.60;;;2.45;;
44137;SDS011;29800;55.942;37.314;2023-02-28T16:35:11;4.63;;;2.33;;
44137;SDS011;29800;55.942;37.314;2023-02-28T16:37:39;3.67;;;2.47;;
44137;SDS011;29800;55.942;37.314;2023-02-28T16:40:07;4.55;;;2.50;;
44137;SDS011;29800;55.942;37.314;2023-02-28T16:42:46;4.00;;;2.20;;
44137;SDS011;29800;55.942;37.314;2023-02-28T16:45:26;4.45;;;2.35;;
44137;SDS011;29800;55.942;37.314;2023-02-28T16:47:54;5.85;;;2.20;;
44137;SDS011;29800;55.942;37.314;2023-02-28T16:50:22;4.18;;;2.30;;
44137;SDS011;29800;55.942;37.314;2023-02-28T16:52:53;3.80;;;2.20;;
44137;SDS011;29800;55.942;37.314;2023-02-28T16:55:20;4.45;;;2.20;;
44137;SDS011;29800;55.942;37.314;2023-02-28T16:57:54;4.82;;;2.00;;
44137;SDS011;29800;55.942;37.314;2023-02-28T17:00:23;3.38;;;1.88;;
44137;SDS011;29800;55.942;37.314;2023-02-28T17:02:50;4.15;;;2.05;;
44137;SDS011;29800;55.942;37.314;2023-02-28T17:05:16;3.63;;;2.00;;
44137;SDS011;29800;55.942;37.314;2023-02-28T17:07:44;3.35;;;1.98;;
44137;SDS011;29800;55.942;37.314;2023-02-28T17:10:21;5.00;;;1.60;;
44137;SDS011;29800;55.942;37.314;2023-02-28T17:12:50;2.42;;;1.60;;
44137;SDS011;29800;55.942;37.314;2023-02-28T17:15:18;2.80;;;1.23;;
44137;SDS011;29800;55.942;37.314;2023-02-28T17:17:45;3.55;;;1.45;;
44137;SDS011;29800;55.942;37.314;2023-02-28T17:22:48;3.63;;;1.50;;
44137;SDS011;29800;55.942;37.314;2023-02-28T17:25:18;3.95;;;1.70;;
44137;SDS011;29800;55.942;37.314;2023-02-28T17:27:44;3.95;;;1.83;;
44137;SDS011;29800;55.942;37.314;2023-02-28T17:32:47;3.58;;;1.00;;
44137;SDS011;29800;55.942;37.314;2023-02-28T17:35:13;3.55;;;1.20;;
44137;SDS011;29800;55.942;37.314;2023-02-28T17:37:40;3.15;;;0.98;;
44137;SDS011;29800;55.942;37.314;2023-02-28T17:40:06;2.08;;;0.70;;
44137;SDS011;29800;55.942;37.314;2023-02-28T17:42:41;2.17;;;0.70;;
44137;SDS011;29800;55.942;37.314;2023-02-28T17:45:08;2.33;;;0.60;;
44137;SDS011;29800;55.942;37.314;2023-02-28T17:47:35;1.33;;;0.55;;
44137;SDS011;29800;55.942;37.314;2023-02-28T17:50:01;4.90;;;0.80;;
44137;SDS011;29800;55.942;37.314;2023-02-28T17:52:28;3.45;;;0.70;;
44137;SDS011;29800;55.942;37.314;2023-02-28T17:54:55;3.30;;;0.65;;